Weather observations for the past three days for
FORT ORD/FRITZSCHE
Imperial (Metric)
Date Time (pdt) Wind (mph) Vis. (mi.) Weather Sky Cond. Temperature (ºF) Relative Humidity Wind Chill (°F) Heat Index (°F) Pressure Precipitation (in)
Air Dwpt 6 hour altimeter (in) sea level (mb) 1 hr 3 hr 6 hr
Max. Min.
06 09:55 NW 5 10.00 Fair CLR 59 44.6 59% 30 0.0
06 09:35 W 5 10.00 Fair CLR 57.2 44.6 63% 30 0.0
06 09:15 Calm 10.00 Fair CLR 55.4 44.6 67% 30 0.0
06 08:55 Calm 10.00 Fair CLR 53.6 44.6 72% 30 0.0
06 08:35 Calm 10.00 Fair CLR 53.6 44.6 72% 30 0.0
06 08:15 SW 3 10.00 Fair CLR 51.8 46.4 82% 30 0.0
06 07:55 Calm 10.00 Fair CLR 48.2 44.6 87% 30 0.0
06 07:35 Calm 10.00 Fair CLR 46.4 44.6 93% 29.99 0.0
06 07:15 Calm 10.00 Fair CLR 44.6 42.8 93% 29.99 0.0
06 06:55 Calm 4.00 Fog/Mist CLR 44.6 42.8 93% 29.98 0.0
06 06:35 Calm 10.00 Fair CLR 44.6 42.8 93% 29.98 0.0
06 06:15 Calm 10.00 Fair CLR 44.6 44.6 100% 29.97 0.0
06 05:55 SW 3 10.00 Fair CLR 46.4 44.6 93% 29.97 0.0
06 05:35 SW 5 10.00 Fair CLR 46.4 44.6 93% 45 29.96 0.0
06 05:15 W 6 10.00 Fair CLR 46.4 44.6 93% 44 29.97 0.0
06 04:55 W 7 10.00 Fair CLR 48.2 44.6 87% 46 29.96 0.0
06 04:35 W 7 10.00 Fair CLR 48.2 44.6 87% 46 29.96 0.0
06 04:15 W 7 10.00 Fair CLR 48.2 46.4 94% 46 29.96 0.0
06 03:55 W 7 10.00 Fair CLR 50 46.4 88% 48 29.96 0.0
06 03:15 W 8 10.00 Fair CLR 50 44.6 82% 47 29.96 0.0
06 02:55 W 10 10.00 Fair CLR 50 44.6 82% 46 29.96 0.0
06 02:35 W 8 10.00 Fair CLR 50 46.4 88% 47 29.96 0.0
06 02:15 W 7 10.00 Fair CLR 50 44.6 82% 48 29.97 0.0
06 01:55 W 8 10.00 Fair CLR 50 44.6 82% 47 29.97 0.0
06 01:35 SW 7 10.00 Fair CLR 51.8 46.4 82% 29.97 0.0
06 01:15 W 9 10.00 Fair CLR 51.8 46.4 82% 29.97 0.0
06 00:55 SW 9 10.00 Fair CLR 51.8 46.4 82% 29.97 0.0
06 00:35 SW 9 10.00 Fair CLR 51.8 44.6 77% 29.97 0.0
06 00:15 SW 8 10.00 Fair CLR 51.8 44.6 77% 29.97 0.0
05 23:55 SW 8 10.00 Fair CLR 51.8 42.8 72% 29.96 0.0
05 23:35 SW 7 10.00 Fair CLR 51.8 42.8 72% 29.96 0.0
05 23:15 SW 8 10.00 Fair CLR 53.6 42.8 67% 29.97 0.0
05 22:55 SW 5 10.00 Fair CLR 53.6 42.8 67% 29.97 0.0
05 22:35 SW 8 10.00 Fair CLR 53.6 42.8 67% 29.96 0.0
05 22:15 SW 9 10.00 Fair CLR 53.6 42.8 67% 29.96 0.0
05 21:55 SW 10 10.00 Fair CLR 55.4 44.6 67% 29.96 0.0
05 21:35 SW 12 10.00 Fair CLR 55.4 44.6 67% 29.97 0.0
05 21:15 SW 10 10.00 Fair CLR 55.4 44.6 67% 29.96 0.0
05 20:55 SW 12 10.00 Fair CLR 55.4 42.8 63% 29.95 0.0
05 20:35 SW 9 10.00 Fair CLR 55.4 42.8 63% 29.95 0.0
05 20:15 SW 14 10.00 Fair CLR 55.4 42.8 63% 29.94 0.0
05 19:55 SW 9 10.00 Fair CLR 55.4 44.6 67% 29.94 0.0
05 19:35 SW 13 10.00 Fair CLR 55.4 44.6 67% 29.94 0.0
05 19:15 W 13 10.00 Fair CLR 55.4 46.4 72% 29.94 0.0
05 18:55 SW 15 10.00 Fair CLR 57.2 46.4 67% 29.94 0.0
05 18:35 SW 14 10.00 Fair CLR 59 46.4 63% 29.94 0.0
05 17:55 W 13 10.00 Fair CLR 60.8 44.6 55% 29.95 0.0
05 17:35 W 14 10.00 Fair CLR 60.8 44.6 55% 29.95 0.0
05 17:15 W 14 G 21 10.00 Fair CLR 60.8 44.6 55% 29.94 0.0
05 16:55 W 15 10.00 Fair CLR 60.8 46.4 59% 29.94 0.0
05 16:35 W 16 G 24 10.00 Fair CLR 60.8 46.4 59% 29.94 0.0
05 16:15 W 16 10.00 Fair CLR 60.8 46.4 59% 29.95 0.0
05 15:55 W 18 G 22 10.00 Fair CLR 60.8 46.4 59% 29.96 0.0
05 15:35 W 18 10.00 Fair CLR 62.6 46.4 56% 29.96 0.0
05 15:15 W 20 10.00 Fair CLR 60.8 48.2 63% 29.96 0.0
05 14:55 W 18 10.00 Fair CLR 62.6 46.4 56% 29.97 0.0
05 14:35 W 17 10.00 Fair CLR 62.6 46.4 56% 29.97 0.0
05 14:15 W 16 G 22 10.00 Fair CLR 62.6 46.4 56% 29.97 0.0
05 13:55 W 17 10.00 Fair CLR 62.6 46.4 56% 29.97 0.0
05 13:35 W 12 10.00 Fair CLR 64.4 44.6 49% 29.97 0.0
05 13:15 NW 12 G 18 10.00 Fair CLR 64.4 46.4 52% 29.97 0.0
05 12:55 W 14 G 20 10.00 Fair CLR 64.4 44.6 49% 29.97 0.0
05 10:55 W 3 10.00 Partly Cloudy SCT085 64.4 42.8 46% 29.98 0.0
05 10:35 W 6 10.00 Mostly Cloudy BKN085 64.4 42.8 46% 29.98 0.0
05 10:15 NW 8 10.00 Partly Cloudy SCT085 60.8 42.8 52% 29.98 0.0
05 09:55 Calm 10.00 Fair CLR 62.6 39.2 42% 29.97 0.0
05 09:35 Calm 10.00 Fair CLR 60.8 39.2 45% 29.97 0.0
05 09:15 W 3 10.00 Partly Cloudy SCT085 59 42.8 55% 29.97 0.0
05 08:55 W 3 10.00 Mostly Cloudy BKN085 55.4 42.8 63% 29.97 0.0
05 08:35 W 3 10.00 Mostly Cloudy BKN085 55.4 42.8 63% 29.97 0.0
05 08:15 W 3 10.00 Overcast SCT075 OVC085 53.6 44.6 72% 29.97 0.0
05 07:35 W 5 10.00 Overcast OVC085 51.8 44.6 77% 29.96 0.0
05 07:15 W 6 10.00 Overcast OVC085 50 46.4 88% 48 29.96 0.0
05 06:55 W 7 10.00 Overcast OVC085 50 42.8 76% 48 29.95 0.0
05 06:35 SW 5 10.00 Overcast OVC085 50 42.8 76% 49 29.95 0.0
05 06:15 W 5 10.00 Overcast OVC085 50 44.6 82% 49 29.95 0.0
05 05:55 W 5 7.00 Mostly Cloudy BKN085 48.2 42.8 82% 47 29.95 0.0
05 05:35 W 5 7.00 Fair CLR 50 42.8 76% 49 29.95 0.0
05 05:15 SW 5 5.00 Partly Cloudy with Haze SCT080 50 42.8 76% 49 29.95 0.0
05 04:55 W 5 7.00 Mostly Cloudy BKN080 50 42.8 76% 49 29.95 0.0
05 04:35 W 5 10.00 Fair CLR 50 42.8 76% 49 29.95 0.0
05 04:15 W 6 10.00 Partly Cloudy SCT085 50 44.6 82% 48 29.95 0.0
05 03:55 W 3 10.00 Mostly Cloudy BKN085 50 42.8 76% 29.95 0.0
05 03:35 Calm 10.00 Overcast OVC085 51.8 42.8 72% 29.95 0.0
05 03:15 Calm 10.00 Overcast OVC085 51.8 44.6 77% 29.95 0.0
05 02:55 NW 3 10.00 Overcast OVC085 53.6 44.6 72% 29.95 0.0
05 02:35 NW 3 10.00 Overcast OVC085 53.6 42.8 67% 29.95 0.0
05 02:15 Calm 10.00 Overcast OVC085 53.6 44.6 72% 29.96 0.0
05 01:55 NW 3 10.00 Overcast OVC085 53.6 42.8 67% 29.96 0.0
05 01:35 Calm 10.00 Overcast OVC085 53.6 42.8 67% 29.97 0.0
05 01:15 N 3 10.00 Overcast OVC085 53.6 42.8 67% 29.97 0.0
05 00:55 Calm 10.00 Overcast OVC085 53.6 42.8 67% 29.96 0.0
05 00:35 Calm 10.00 Overcast OVC085 53.6 42.8 67% 29.97 0.0
05 00:15 N 3 10.00 Overcast OVC085 53.6 42.8 67% 29.97 0.0
04 23:55 N 3 10.00 Overcast OVC085 53.6 42.8 67% 29.96 0.0
04 23:35 Calm 10.00 Overcast OVC085 55.4 41 59% 29.96 0.0
04 23:15 SW 8 10.00 Mostly Cloudy BKN085 53.6 41 63% 29.96 0.0
04 22:55 SW 10 10.00 Partly Cloudy SCT095 53.6 42.8 67% 29.96 0.0
04 22:35 SW 10 10.00 Partly Cloudy SCT095 53.6 42.8 67% 29.95 0.0
04 22:15 SW 10 10.00 Fair CLR 53.6 44.6 72% 29.96 0.0
04 21:55 SW 8 10.00 Fair CLR 53.6 44.6 72% 29.96 0.0
04 21:35 SW 8 10.00 Fair CLR 53.6 44.6 72% 29.96 0.0
04 21:15 SW 12 10.00 Fair CLR 53.6 44.6 72% 29.95 0.0
04 20:55 SW 12 10.00 Fair CLR 53.6 44.6 72% 29.95 0.0
04 20:35 SW 6 10.00 Fair CLR 53.6 44.6 72% 29.95 0.0
04 20:15 W 9 10.00 Fair CLR 55.4 44.6 67% 29.94 0.0
04 19:55 W 12 10.00 Fair CLR 55.4 44.6 67% 29.94 0.0
04 19:35 W 10 10.00 Fair CLR 55.4 44.6 67% 29.94 0.0
04 19:15 W 9 10.00 Fair CLR 57.2 44.6 63% 29.94 0.0
04 18:55 W 9 10.00 Fair CLR 57.2 44.6 63% 29.94 0.0
04 18:35 W 8 10.00 Fair CLR 59 44.6 59% 29.95 0.0
04 18:15 W 10 10.00 Fair CLR 60.8 44.6 55% 29.95 0.0
04 17:55 W 13 G 17 10.00 Fair CLR 60.8 44.6 55% 29.94 0.0
04 17:35 W 14 10.00 Fair CLR 60.8 44.6 55% 29.94 0.0
04 17:15 W 13 G 17 10.00 Fair CLR 62.6 44.6 52% 29.94 0.0
04 16:55 W 12 10.00 Fair CLR 62.6 44.6 52% 29.94 0.0
04 16:35 W 13 10.00 Fair CLR 62.6 44.6 52% 29.94 0.0
04 16:15 W 15 G 18 10.00 Fair CLR 64.4 44.6 49% 29.94 0.0
04 15:55 W 14 G 18 10.00 Fair CLR 64.4 44.6 49% 29.94 0.0
04 15:35 W 14 G 22 10.00 Fair CLR 64.4 42.8 46% 29.95 0.0
04 15:15 NW 13 G 17 10.00 Fair CLR 64.4 44.6 49% 29.96 0.0
04 14:55 W 12 10.00 Fair CLR 66.2 46.4 49% 29.95 0.0
04 14:35 W 13 10.00 Fair CLR 64.4 48.2 56% 29.96 0.0
04 14:15 W 12 G 16 10.00 Fair CLR 68 46.4 46% 29.95 0.0
04 13:55 NW 9 10.00 Mostly Cloudy BKN090 68 42.8 40% 29.95 0.0
04 13:35 NW 8 10.00 Mostly Cloudy BKN090 68 41 38% 29.96 0.0
04 13:15 W 7 10.00 Partly Cloudy SCT090 69.8 42.8 38% 29.95 0.0
04 12:55 W 7 10.00 Mostly Cloudy BKN090 68 42.8 40% 29.96 0.0
04 12:35 NW 7 10.00 Fair CLR 68 44.6 43% 29.96 0.0
04 12:15 W 6 10.00 Partly Cloudy SCT090 64.4 46.4 52% 29.96 0.0
04 11:55 NW 8 10.00 Overcast OVC090 64.4 48.2 56% 29.97 0.0
04 11:35 W 8 10.00 Overcast OVC090 62.6 48.2 60% 29.97 0.0
04 11:15 NW 5 10.00 Overcast OVC090 62.6 48.2 60% 29.97 0.0
04 10:55 NW 5 10.00 Overcast OVC090 60.8 48.2 63% 29.97 0.0
04 10:35 NW 6 10.00 Overcast SCT022 OVC090 60.8 50 68% 29.97 0.0
04 10:15 NW 8 10.00 Overcast SCT022 OVC090 60.8 50 68% 29.97 0.0
04 09:55 Calm 10.00 Overcast OVC090 60.8 50 68% 29.96 0.0
04 09:35 Calm 10.00 Partly Cloudy SCT090 59 50 72% 29.96 0.0
04 09:15 W 5 10.00 Fair CLR 59 50 72% 29.96 0.0
04 08:55 W 3 10.00 Fair CLR 59 50 72% 29.96 0.0
04 08:35 W 5 10.00 Fair CLR 57.2 50 77% 29.95 0.0
04 08:15 W 3 10.00 Fair CLR 55.4 50 82% 29.95 0.0
04 07:55 SW 5 10.00 Fair CLR 53.6 50 88% 29.95 0.0
04 07:35 SW 3 10.00 Fair CLR 51.8 50 94% 29.94 0.0
04 07:15 SW 3 7.00 Fair CLR 51.8 50 94% 29.94 0.0
04 06:55 W 6 10.00 Fair CLR 51.8 50 94% 29.93 0.0
04 06:35 W 8 10.00 Fair CLR 51.8 50 94% 29.92 0.0
04 06:15 W 8 10.00 Fair CLR 51.8 50 94% 29.92 0.0
04 05:55 SW 8 10.00 Fair CLR 51.8 50 94% 29.92 0.0
04 05:35 W 9 10.00 Partly Cloudy SCT007 SCT023 51.8 50 94% 29.92 0.0
04 05:15 W 8 10.00 Mostly Cloudy BKN023 BKN060 BKN070 51.8 50 94% 29.92 0.0
04 04:55 W 8 10.00 Overcast SCT007 BKN023 OVC060 53.6 50 88% 29.92 0.0
04 04:35 W 9 10.00 Overcast SCT020 BKN025 OVC035 53.6 51.8 94% 29.91 0.0
04 04:15 W 8 4.00 Fog/Mist SCT012 OVC018 53.6 51.8 94% 29.91 0.0
04 03:55 W 9 7.00 Overcast SCT006 OVC012 53.6 51.8 94% 29.9 0.0
04 03:35 W 9 2.00 Light Drizzle BKN006 OVC012 53.6 51.8 94% 29.9 0.0
04 03:15 W 9 7.00 Overcast SCT014 OVC022 55.4 53.6 94% 29.89 0.0
04 02:55 W 7 5.00 Fog/Mist SCT008 BKN014 OVC020 55.4 53.6 94% 29.89 0.0
04 02:35 W 7 7.00 Overcast BKN008 BKN012 OVC019 55.4 51.8 88% 29.9 0.0
04 02:15 W 12 10.00 Overcast SCT008 BKN020 OVC026 57.2 51.8 82% 29.9 0.0
04 01:55 W 7 10.00 Overcast OVC020 57.2 53.6 88% 29.89 0.0
04 01:35 W 7 10.00 Overcast SCT014 OVC022 57.2 53.6 88% 29.9 0.0
04 01:15 W 6 10.00 Overcast BKN014 BKN022 OVC026 59 53.6 82% 29.9 0.0
04 00:55 W 7 10.00 Overcast SCT012 OVC024 59 53.6 82% 29.9 0.0
04 00:35 W 8 10.00 Overcast OVC022 59 53.6 82% 29.9 0.0
04 00:15 W 6 10.00 Overcast BKN020 OVC046 57.2 53.6 88% 29.89 0.0
03 23:55 W 5 10.00 Overcast SCT014 BKN021 OVC046 57.2 51.8 82% 29.9 0.0
03 23:35 W 5 10.00 Overcast SCT014 OVC080 55.4 51.8 88% 29.9 0.0
03 23:15 SW 3 10.00 Overcast SCT011 OVC080 57.2 51.8 82% 29.9 0.0
03 22:55 W 5 10.00 Overcast OVC080 57.2 51.8 82% 29.9 0.0
03 22:35 W 6 10.00 Overcast OVC080 57.2 51.8 82% 29.91 0.0
03 22:15 W 5 10.00 Overcast OVC080 57.2 53.6 88% 29.92 0.0
03 21:55 W 6 10.00 Mostly Cloudy BKN080 57.2 53.6 88% 29.92 0.0
03 21:35 W 6 10.00 Mostly Cloudy SCT011 BKN032 59 53.6 82% 29.92 0.0
03 21:15 W 7 10.00 Overcast BKN011 OVC030 59 53.6 82% 29.92 0.0
03 20:55 W 6 10.00 Overcast BKN011 OVC030 59 53.6 82% 29.91 0.0
03 20:35 W 7 10.00 Overcast SCT011 OVC028 59 53.6 82% 29.91 0.0
03 20:15 W 9 10.00 Overcast SCT011 BKN019 OVC025 59 51.8 77% 29.91 0.0
03 19:55 W 8 10.00 Overcast OVC017 59 51.8 77% 29.91 0.0
03 19:35 W 7 10.00 Overcast SCT016 OVC022 59 51.8 77% 29.91 0.0
03 19:15 W 9 10.00 Mostly Cloudy BKN024 59 51.8 77% 29.91 0.0
03 18:55 W 12 10.00 Partly Cloudy SCT024 59 51.8 77% 29.92 0.0
03 18:35 W 12 G 16 10.00 Fair CLR 60.8 50 68% 29.92 0.0
03 18:15 W 12 G 16 10.00 Fair CLR 60.8 51.8 72% 29.92 0.0
03 17:55 W 15 10.00 Fair CLR 62.6 51.8 68% 29.92 0.0
03 17:35 W 15 10.00 Fair CLR 62.6 51.8 68% 29.92 0.0
03 17:15 W 17 G 22 10.00 Fair CLR 62.6 51.8 68% 29.92 0.0
03 16:55 W 14 10.00 Fair CLR 64.4 50 60% 29.92 0.0
03 16:35 W 14 G 20 10.00 Fair CLR 64.4 50 60% 29.93 0.0
03 16:15 W 15 10.00 Fair CLR 62.6 51.8 68% 29.94 0.0
03 15:55 W 17 10.00 Fair CLR 64.4 51.8 64% 29.94 0.0
03 15:35 W 16 G 21 10.00 Fair CLR 64.4 51.8 64% 29.95 0.0
03 15:15 W 16 G 23 10.00 Fair CLR 62.6 50 64% 29.95 0.0
03 14:55 W 15 10.00 Fair CLR 62.6 50 64% 29.96 0.0
03 14:35 W 15 G 21 10.00 Fair CLR 64.4 50 60% 29.96 0.0
03 14:15 W 15 10.00 Fair CLR 62.6 50 64% 29.96 0.0
03 13:55 W 14 10.00 Fair CLR 64.4 50 60% 29.97 0.0
03 13:35 W 10 10.00 Fair CLR 64.4 48.2 56% 29.97 0.0
03 13:15 W 12 10.00 Fair CLR 64.4 48.2 56% 29.97 0.0
03 12:55 W 10 10.00 Fair CLR 64.4 48.2 56% 29.97 0.0
03 12:35 NW 9 10.00 Fair CLR 64.4 48.2 56% 29.98 0.0
03 11:55 NW 9 10.00 Fair CLR 62.6 46.4 56% 30 0.0
03 11:35 NW 9 10.00 Fair CLR 62.6 48.2 60% 30 0.0
03 11:15 W 6 10.00 Fair CLR 62.6 48.2 60% 30 0.0
03 10:55 NW 5 10.00 Fair CLR 60.8 46.4 59% 30 0.0
03 10:35 W 5 10.00 Fair CLR 60.8 48.2 63% 30 0.0
03 10:15 W 3 10.00 Partly Cloudy SCT015 59 48.2 68% 30.01 0.0
Date Time (pdt) Wind (mph) Vis. (mi.) Weather Sky Cond. Air Dwpt Max. Min. Relative Humidity Wind Chill (°F) Heat Index (°F) altimeter (in) sea level (mb) 1 hr 3 hr 6 hr
6 hour
Temperature (ºF) Pressure Precipitation (in)